sensor_id;sensor_type;location;lat;lon;timestamp;P1;durP1;ratioP1;P2;durP2;ratioP2
47481;SDS011;33219;47.410;9.730;2023-04-08T00:01:50;3.02;;;2.15;;
47481;SDS011;33219;47.410;9.730;2023-04-08T00:04:18;3.15;;;1.90;;
47481;SDS011;33219;47.410;9.730;2023-04-08T00:06:45;3.52;;;1.82;;
47481;SDS011;33219;47.410;9.730;2023-04-08T00:09:13;2.92;;;1.77;;
47481;SDS011;33219;47.410;9.730;2023-04-08T00:11:41;2.40;;;1.80;;
47481;SDS011;33219;47.410;9.730;2023-04-08T00:14:08;3.15;;;1.60;;
47481;SDS011;33219;47.410;9.730;2023-04-08T00:16:36;3.00;;;1.80;;
47481;SDS011;33219;47.410;9.730;2023-04-08T00:19:03;3.02;;;1.70;;
47481;SDS011;33219;47.410;9.730;2023-04-08T00:21:31;2.47;;;1.60;;
47481;SDS011;33219;47.410;9.730;2023-04-08T00:23:59;2.33;;;1.60;;
47481;SDS011;33219;47.410;9.730;2023-04-08T00:26:26;1.85;;;1.57;;
47481;SDS011;33219;47.410;9.730;2023-04-08T00:28:54;2.08;;;1.42;;
47481;SDS011;33219;47.410;9.730;2023-04-08T00:31:22;3.62;;;1.50;;
47481;SDS011;33219;47.410;9.730;2023-04-08T00:33:49;2.80;;;1.50;;
47481;SDS011;33219;47.410;9.730;2023-04-08T00:36:17;1.87;;;1.40;;
47481;SDS011;33219;47.410;9.730;2023-04-08T00:38:44;2.15;;;1.55;;
47481;SDS011;33219;47.410;9.730;2023-04-08T00:41:12;2.00;;;1.30;;
47481;SDS011;33219;47.410;9.730;2023-04-08T00:43:40;2.00;;;1.50;;
47481;SDS011;33219;47.410;9.730;2023-04-08T00:46:08;1.35;;;1.25;;
47481;SDS011;33219;47.410;9.730;2023-04-08T00:48:36;1.90;;;1.15;;
47481;SDS011;33219;47.410;9.730;2023-04-08T00:51:03;2.98;;;1.42;;
47481;SDS011;33219;47.410;9.730;2023-04-08T00:53:31;1.70;;;1.35;;
47481;SDS011;33219;47.410;9.730;2023-04-08T00:55:59;1.57;;;1.30;;
47481;SDS011;33219;47.410;9.730;2023-04-08T00:58:27;2.30;;;1.50;;
47481;SDS011;33219;47.410;9.730;2023-04-08T01:01:14;2.00;;;1.60;;
47481;SDS011;33219;47.410;9.730;2023-04-08T01:06:29;1.45;;;1.17;;
47481;SDS011;33219;47.410;9.730;2023-04-08T01:09:05;2.35;;;1.40;;
47481;SDS011;33219;47.410;9.730;2023-04-08T01:11:31;1.75;;;1.40;;
47481;SDS011;33219;47.410;9.730;2023-04-08T01:14:01;1.92;;;1.20;;
47481;SDS011;33219;47.410;9.730;2023-04-08T01:16:32;2.47;;;1.60;;
47481;SDS011;33219;47.410;9.730;2023-04-08T01:19:00;3.30;;;1.50;;
47481;SDS011;33219;47.410;9.730;2023-04-08T01:21:28;2.40;;;1.60;;
47481;SDS011;33219;47.410;9.730;2023-04-08T01:23:59;2.02;;;1.40;;
47481;SDS011;33219;47.410;9.730;2023-04-08T01:26:29;3.65;;;1.80;;
47481;SDS011;33219;47.410;9.730;2023-04-08T01:28:58;2.35;;;1.60;;
47481;SDS011;33219;47.410;9.730;2023-04-08T01:31:27;3.17;;;1.72;;
47481;SDS011;33219;47.410;9.730;2023-04-08T01:33:56;2.67;;;1.47;;
47481;SDS011;33219;47.410;9.730;2023-04-08T01:36:26;2.60;;;1.47;;
47481;SDS011;33219;47.410;9.730;2023-04-08T01:38:58;3.00;;;1.72;;
47481;SDS011;33219;47.410;9.730;2023-04-08T01:41:28;2.40;;;1.67;;
47481;SDS011;33219;47.410;9.730;2023-04-08T01:43:57;2.17;;;1.52;;
47481;SDS011;33219;47.410;9.730;2023-04-08T01:46:26;3.35;;;1.80;;
47481;SDS011;33219;47.410;9.730;2023-04-08T01:48:55;2.47;;;1.67;;
47481;SDS011;33219;47.410;9.730;2023-04-08T01:51:24;3.22;;;1.67;;
47481;SDS011;33219;47.410;9.730;2023-04-08T01:53:52;2.55;;;1.60;;
47481;SDS011;33219;47.410;9.730;2023-04-08T01:56:22;1.98;;;1.40;;
47481;SDS011;33219;47.410;9.730;2023-04-08T01:58:53;2.50;;;1.70;;
47481;SDS011;33219;47.410;9.730;2023-04-08T02:01:24;1.87;;;1.40;;
47481;SDS011;33219;47.410;9.730;2023-04-08T02:03:53;1.70;;;1.30;;
47481;SDS011;33219;47.410;9.730;2023-04-08T02:06:24;1.92;;;1.40;;
47481;SDS011;33219;47.410;9.730;2023-04-08T02:08:54;2.45;;;1.85;;
47481;SDS011;33219;47.410;9.730;2023-04-08T02:11:25;3.12;;;1.80;;
47481;SDS011;33219;47.410;9.730;2023-04-08T02:13:54;2.52;;;1.92;;
47481;SDS011;33219;47.410;9.730;2023-04-08T02:16:22;3.00;;;1.90;;
47481;SDS011;33219;47.410;9.730;2023-04-08T02:18:57;2.40;;;1.80;;
47481;SDS011;33219;47.410;9.730;2023-04-08T02:21:26;2.60;;;1.70;;
47481;SDS011;33219;47.410;9.730;2023-04-08T02:23:59;2.17;;;1.57;;
47481;SDS011;33219;47.410;9.730;2023-04-08T02:26:29;2.92;;;1.85;;
47481;SDS011;33219;47.410;9.730;2023-04-08T02:28:59;3.10;;;1.82;;
47481;SDS011;33219;47.410;9.730;2023-04-08T02:31:29;2.70;;;1.85;;
47481;SDS011;33219;47.410;9.730;2023-04-08T02:33:57;2.20;;;1.87;;
47481;SDS011;33219;47.410;9.730;2023-04-08T02:36:25;2.65;;;1.90;;
47481;SDS011;33219;47.410;9.730;2023-04-08T02:38:53;2.08;;;1.70;;
47481;SDS011;33219;47.410;9.730;2023-04-08T02:41:21;2.35;;;1.80;;
47481;SDS011;33219;47.410;9.730;2023-04-08T02:43:49;2.30;;;1.72;;
47481;SDS011;33219;47.410;9.730;2023-04-08T02:46:18;2.20;;;1.77;;
47481;SDS011;33219;47.410;9.730;2023-04-08T02:48:45;3.65;;;1.82;;
47481;SDS011;33219;47.410;9.730;2023-04-08T02:51:13;2.08;;;1.52;;
47481;SDS011;33219;47.410;9.730;2023-04-08T02:53:41;2.15;;;1.60;;
47481;SDS011;33219;47.410;9.730;2023-04-08T02:56:09;2.62;;;2.10;;
47481;SDS011;33219;47.410;9.730;2023-04-08T02:58:37;3.40;;;2.05;;
47481;SDS011;33219;47.410;9.730;2023-04-08T03:01:04;3.17;;;2.33;;
47481;SDS011;33219;47.410;9.730;2023-04-08T03:03:33;3.05;;;2.40;;
47481;SDS011;33219;47.410;9.730;2023-04-08T03:06:01;3.85;;;2.55;;
47481;SDS011;33219;47.410;9.730;2023-04-08T03:08:29;3.22;;;2.20;;
47481;SDS011;33219;47.410;9.730;2023-04-08T03:10:57;2.50;;;1.90;;
47481;SDS011;33219;47.410;9.730;2023-04-08T03:13:25;2.65;;;1.72;;
47481;SDS011;33219;47.410;9.730;2023-04-08T03:15:54;2.37;;;1.50;;
47481;SDS011;33219;47.410;9.730;2023-04-08T03:18:21;2.02;;;1.55;;
47481;SDS011;33219;47.410;9.730;2023-04-08T03:20:49;2.67;;;1.70;;
47481;SDS011;33219;47.410;9.730;2023-04-08T03:23:17;1.75;;;1.45;;
47481;SDS011;33219;47.410;9.730;2023-04-08T03:25:44;2.83;;;1.60;;
47481;SDS011;33219;47.410;9.730;2023-04-08T03:28:12;2.47;;;1.62;;
47481;SDS011;33219;47.410;9.730;2023-04-08T03:30:40;2.47;;;1.60;;
47481;SDS011;33219;47.410;9.730;2023-04-08T03:33:07;2.47;;;2.00;;
47481;SDS011;33219;47.410;9.730;2023-04-08T03:35:36;2.10;;;1.70;;
47481;SDS011;33219;47.410;9.730;2023-04-08T03:38:04;3.47;;;1.80;;
47481;SDS011;33219;47.410;9.730;2023-04-08T03:40:31;3.40;;;2.02;;
47481;SDS011;33219;47.410;9.730;2023-04-08T03:42:59;3.75;;;2.20;;
47481;SDS011;33219;47.410;9.730;2023-04-08T03:45:26;2.80;;;2.15;;
47481;SDS011;33219;47.410;9.730;2023-04-08T03:47:54;3.60;;;2.75;;
47481;SDS011;33219;47.410;9.730;2023-04-08T03:50:22;6.55;;;3.95;;
47481;SDS011;33219;47.410;9.730;2023-04-08T03:52:49;6.28;;;4.08;;
47481;SDS011;33219;47.410;9.730;2023-04-08T03:55:17;5.05;;;4.00;;
47481;SDS011;33219;47.410;9.730;2023-04-08T03:57:45;6.20;;;4.45;;
47481;SDS011;33219;47.410;9.730;2023-04-08T04:00:12;6.72;;;4.78;;
47481;SDS011;33219;47.410;9.730;2023-04-08T04:02:40;6.83;;;5.45;;
47481;SDS011;33219;47.410;9.730;2023-04-08T04:05:08;8.33;;;5.60;;
47481;SDS011;33219;47.410;9.730;2023-04-08T04:07:35;8.88;;;6.12;;
47481;SDS011;33219;47.410;9.730;2023-04-08T04:10:03;9.95;;;7.05;;
47481;SDS011;33219;47.410;9.730;2023-04-08T04:12:31;11.25;;;7.62;;
47481;SDS011;33219;47.410;9.730;2023-04-08T04:14:59;11.90;;;8.80;;
47481;SDS011;33219;47.410;9.730;2023-04-08T04:17:26;14.80;;;9.40;;
47481;SDS011;33219;47.410;9.730;2023-04-08T04:19:59;16.30;;;9.85;;
47481;SDS011;33219;47.410;9.730;2023-04-08T04:22:23;14.38;;;10.30;;
47481;SDS011;33219;47.410;9.730;2023-04-08T04:24:51;15.40;;;10.63;;
47481;SDS011;33219;47.410;9.730;2023-04-08T04:27:18;15.53;;;10.90;;
47481;SDS011;33219;47.410;9.730;2023-04-08T04:29:45;15.03;;;10.72;;
47481;SDS011;33219;47.410;9.730;2023-04-08T04:32:13;16.23;;;10.70;;
47481;SDS011;33219;47.410;9.730;2023-04-08T04:34:40;18.35;;;10.80;;
47481;SDS011;33219;47.410;9.730;2023-04-08T04:37:09;14.18;;;9.75;;
47481;SDS011;33219;47.410;9.730;2023-04-08T04:39:36;14.00;;;9.55;;
47481;SDS011;33219;47.410;9.730;2023-04-08T04:42:04;10.98;;;8.35;;
47481;SDS011;33219;47.410;9.730;2023-04-08T04:44:32;13.93;;;9.25;;
47481;SDS011;33219;47.410;9.730;2023-04-08T04:46:59;12.33;;;8.65;;
47481;SDS011;33219;47.410;9.730;2023-04-08T04:49:27;12.35;;;8.95;;
47481;SDS011;33219;47.410;9.730;2023-04-08T04:51:54;13.00;;;9.33;;
47481;SDS011;33219;47.410;9.730;2023-04-08T04:54:22;12.63;;;8.83;;
47481;SDS011;33219;47.410;9.730;2023-04-08T04:56:50;13.08;;;9.78;;
47481;SDS011;33219;47.410;9.730;2023-04-08T04:59:18;14.27;;;8.67;;
47481;SDS011;33219;47.410;9.730;2023-04-08T05:01:45;12.40;;;8.85;;
47481;SDS011;33219;47.410;9.730;2023-04-08T05:04:13;11.73;;;8.45;;
47481;SDS011;33219;47.410;9.730;2023-04-08T05:06:41;9.50;;;7.30;;
47481;SDS011;33219;47.410;9.730;2023-04-08T05:09:08;12.25;;;8.10;;
47481;SDS011;33219;47.410;9.730;2023-04-08T05:11:36;12.60;;;8.30;;
47481;SDS011;33219;47.410;9.730;2023-04-08T05:14:03;14.03;;;8.40;;
47481;SDS011;33219;47.410;9.730;2023-04-08T05:16:32;10.72;;;7.60;;
47481;SDS011;33219;47.410;9.730;2023-04-08T05:19:00;7.65;;;5.65;;
47481;SDS011;33219;47.410;9.730;2023-04-08T05:21:27;8.45;;;5.85;;
47481;SDS011;33219;47.410;9.730;2023-04-08T05:23:55;7.85;;;6.10;;
47481;SDS011;33219;47.410;9.730;2023-04-08T05:26:22;9.15;;;6.40;;
47481;SDS011;33219;47.410;9.730;2023-04-08T05:28:51;8.60;;;6.12;;
47481;SDS011;33219;47.410;9.730;2023-04-08T05:31:18;7.83;;;5.08;;
47481;SDS011;33219;47.410;9.730;2023-04-08T05:33:46;7.85;;;5.00;;
47481;SDS011;33219;47.410;9.730;2023-04-08T05:36:14;9.13;;;6.50;;
47481;SDS011;33219;47.410;9.730;2023-04-08T05:38:41;10.75;;;7.00;;
47481;SDS011;33219;47.410;9.730;2023-04-08T05:41:09;10.05;;;6.33;;
47481;SDS011;33219;47.410;9.730;2023-04-08T05:43:37;10.23;;;6.83;;
47481;SDS011;33219;47.410;9.730;2023-04-08T05:46:08;9.98;;;6.50;;
47481;SDS011;33219;47.410;9.730;2023-04-08T05:48:36;8.13;;;4.72;;
47481;SDS011;33219;47.410;9.730;2023-04-08T05:51:04;6.45;;;4.35;;
47481;SDS011;33219;47.410;9.730;2023-04-08T05:53:32;9.05;;;5.85;;
47481;SDS011;33219;47.410;9.730;2023-04-08T05:55:59;7.67;;;5.12;;
47481;SDS011;33219;47.410;9.730;2023-04-08T05:58:27;8.93;;;5.50;;
47481;SDS011;33219;47.410;9.730;2023-04-08T06:00:54;7.72;;;5.22;;
47481;SDS011;33219;47.410;9.730;2023-04-08T06:03:22;6.30;;;4.00;;
47481;SDS011;33219;47.410;9.730;2023-04-08T06:05:50;9.40;;;7.20;;
47481;SDS011;33219;47.410;9.730;2023-04-08T06:08:17;10.73;;;8.03;;
47481;SDS011;33219;47.410;9.730;2023-04-08T06:10:48;9.93;;;7.10;;
47481;SDS011;33219;47.410;9.730;2023-04-08T06:13:17;8.83;;;6.67;;
47481;SDS011;33219;47.410;9.730;2023-04-08T06:15:45;9.38;;;6.97;;
47481;SDS011;33219;47.410;9.730;2023-04-08T06:18:16;7.87;;;6.03;;
47481;SDS011;33219;47.410;9.730;2023-04-08T06:20:44;6.33;;;4.93;;
47481;SDS011;33219;47.410;9.730;2023-04-08T06:23:11;5.22;;;3.83;;
47481;SDS011;33219;47.410;9.730;2023-04-08T06:25:39;4.83;;;3.40;;
47481;SDS011;33219;47.410;9.730;2023-04-08T06:28:07;3.97;;;2.83;;
47481;SDS011;33219;47.410;9.730;2023-04-08T06:30:34;5.17;;;3.25;;
47481;SDS011;33219;47.410;9.730;2023-04-08T06:33:02;4.33;;;2.70;;
47481;SDS011;33219;47.410;9.730;2023-04-08T06:35:29;4.83;;;2.98;;
47481;SDS011;33219;47.410;9.730;2023-04-08T06:37:57;4.53;;;2.90;;
47481;SDS011;33219;47.410;9.730;2023-04-08T06:40:24;5.00;;;3.07;;
47481;SDS011;33219;47.410;9.730;2023-04-08T06:42:52;4.53;;;3.17;;
47481;SDS011;33219;47.410;9.730;2023-04-08T06:45:20;3.85;;;2.90;;
47481;SDS011;33219;47.410;9.730;2023-04-08T06:47:47;4.72;;;3.37;;
47481;SDS011;33219;47.410;9.730;2023-04-08T06:50:15;4.33;;;3.10;;
47481;SDS011;33219;47.410;9.730;2023-04-08T06:52:43;4.42;;;3.30;;
47481;SDS011;33219;47.410;9.730;2023-04-08T06:55:10;3.50;;;2.80;;
47481;SDS011;33219;47.410;9.730;2023-04-08T06:57:38;5.43;;;3.00;;
47481;SDS011;33219;47.410;9.730;2023-04-08T07:00:06;4.67;;;2.98;;
47481;SDS011;33219;47.410;9.730;2023-04-08T07:02:34;3.30;;;2.30;;
47481;SDS011;33219;47.410;9.730;2023-04-08T07:05:01;3.92;;;2.30;;
47481;SDS011;33219;47.410;9.730;2023-04-08T07:07:29;4.53;;;2.45;;
47481;SDS011;33219;47.410;9.730;2023-04-08T07:09:57;4.10;;;2.45;;
47481;SDS011;33219;47.410;9.730;2023-04-08T07:12:24;3.00;;;2.20;;
47481;SDS011;33219;47.410;9.730;2023-04-08T07:14:52;3.15;;;2.17;;
47481;SDS011;33219;47.410;9.730;2023-04-08T07:17:19;3.27;;;2.20;;
47481;SDS011;33219;47.410;9.730;2023-04-08T07:19:47;3.98;;;2.33;;
47481;SDS011;33219;47.410;9.730;2023-04-08T07:22:15;3.65;;;2.27;;
47481;SDS011;33219;47.410;9.730;2023-04-08T07:24:43;3.30;;;2.22;;
47481;SDS011;33219;47.410;9.730;2023-04-08T07:27:12;2.80;;;1.98;;
47481;SDS011;33219;47.410;9.730;2023-04-08T07:29:39;2.67;;;1.67;;
47481;SDS011;33219;47.410;9.730;2023-04-08T07:32:07;3.37;;;1.80;;
47481;SDS011;33219;47.410;9.730;2023-04-08T07:34:35;2.60;;;1.85;;
47481;SDS011;33219;47.410;9.730;2023-04-08T07:37:03;2.92;;;2.00;;
47481;SDS011;33219;47.410;9.730;2023-04-08T07:39:31;3.12;;;2.17;;
47481;SDS011;33219;47.410;9.730;2023-04-08T07:41:58;2.35;;;1.90;;
47481;SDS011;33219;47.410;9.730;2023-04-08T07:44:26;3.02;;;2.10;;
47481;SDS011;33219;47.410;9.730;2023-04-08T07:46:54;2.87;;;2.00;;
47481;SDS011;33219;47.410;9.730;2023-04-08T07:49:21;3.72;;;2.10;;
47481;SDS011;33219;47.410;9.730;2023-04-08T07:51:49;3.30;;;2.17;;
47481;SDS011;33219;47.410;9.730;2023-04-08T07:54:16;3.02;;;1.95;;
47481;SDS011;33219;47.410;9.730;2023-04-08T07:56:44;3.15;;;1.90;;
47481;SDS011;33219;47.410;9.730;2023-04-08T07:59:12;3.70;;;1.95;;
47481;SDS011;33219;47.410;9.730;2023-04-08T08:01:40;3.25;;;2.10;;
47481;SDS011;33219;47.410;9.730;2023-04-08T08:04:07;3.20;;;1.87;;
47481;SDS011;33219;47.410;9.730;2023-04-08T08:06:35;2.75;;;1.70;;
47481;SDS011;33219;47.410;9.730;2023-04-08T08:09:02;3.15;;;2.02;;
47481;SDS011;33219;47.410;9.730;2023-04-08T08:11:30;4.35;;;2.37;;
47481;SDS011;33219;47.410;9.730;2023-04-08T08:13:57;2.95;;;2.00;;
47481;SDS011;33219;47.410;9.730;2023-04-08T08:16:28;3.83;;;2.17;;
47481;SDS011;33219;47.410;9.730;2023-04-08T08:18:56;3.52;;;2.00;;
47481;SDS011;33219;47.410;9.730;2023-04-08T08:21:24;4.47;;;2.20;;
47481;SDS011;33219;47.410;9.730;2023-04-08T08:23:52;2.98;;;2.00;;
47481;SDS011;33219;47.410;9.730;2023-04-08T08:26:21;3.00;;;1.77;;
47481;SDS011;33219;47.410;9.730;2023-04-08T08:28:49;2.67;;;1.60;;
47481;SDS011;33219;47.410;9.730;2023-04-08T08:31:17;2.60;;;1.82;;
47481;SDS011;33219;47.410;9.730;2023-04-08T08:33:44;4.60;;;2.70;;
47481;SDS011;33219;47.410;9.730;2023-04-08T08:36:12;4.60;;;2.52;;
47481;SDS011;33219;47.410;9.730;2023-04-08T08:38:40;5.40;;;3.37;;
47481;SDS011;33219;47.410;9.730;2023-04-08T08:41:07;4.05;;;3.25;;
47481;SDS011;33219;47.410;9.730;2023-04-08T08:43:35;4.72;;;3.25;;
47481;SDS011;33219;47.410;9.730;2023-04-08T08:46:04;4.50;;;3.33;;
47481;SDS011;33219;47.410;9.730;2023-04-08T08:48:33;4.92;;;3.72;;
47481;SDS011;33219;47.410;9.730;2023-04-08T08:51:07;7.03;;;3.95;;
47481;SDS011;33219;47.410;9.730;2023-04-08T08:56:03;6.42;;;4.67;;
47481;SDS011;33219;47.410;9.730;2023-04-08T08:58:31;5.90;;;4.75;;
47481;SDS011;33219;47.410;9.730;2023-04-08T09:00:59;6.80;;;5.55;;
47481;SDS011;33219;47.410;9.730;2023-04-08T09:03:27;10.58;;;7.17;;
47481;SDS011;33219;47.410;9.730;2023-04-08T09:05:55;6.62;;;5.20;;
47481;SDS011;33219;47.410;9.730;2023-04-08T09:08:25;5.90;;;4.53;;
47481;SDS011;33219;47.410;9.730;2023-04-08T09:13:47;4.78;;;4.00;;
47481;SDS011;33219;47.410;9.730;2023-04-08T09:16:15;4.85;;;3.92;;
47481;SDS011;33219;47.410;9.730;2023-04-08T09:18:44;5.72;;;4.47;;
47481;SDS011;33219;47.410;9.730;2023-04-08T09:21:14;5.65;;;4.00;;
47481;SDS011;33219;47.410;9.730;2023-04-08T09:26:13;7.58;;;4.42;;
47481;SDS011;33219;47.410;9.730;2023-04-08T09:28:43;5.97;;;4.20;;
47481;SDS011;33219;47.410;9.730;2023-04-08T09:31:20;5.62;;;4.30;;
47481;SDS011;33219;47.410;9.730;2023-04-08T09:33:53;5.20;;;3.95;;
47481;SDS011;33219;47.410;9.730;2023-04-08T09:36:22;5.72;;;4.00;;
47481;SDS011;33219;47.410;9.730;2023-04-08T09:38:52;5.75;;;4.85;;
47481;SDS011;33219;47.410;9.730;2023-04-08T09:41:21;5.25;;;3.83;;
47481;SDS011;33219;47.410;9.730;2023-04-08T09:43:49;4.47;;;3.83;;
47481;SDS011;33219;47.410;9.730;2023-04-08T09:46:26;4.50;;;3.77;;
47481;SDS011;33219;47.410;9.730;2023-04-08T09:49:16;5.37;;;3.98;;
47481;SDS011;33219;47.410;9.730;2023-04-08T09:51:52;4.12;;;3.45;;
47481;SDS011;33219;47.410;9.730;2023-04-08T09:57:12;5.35;;;3.90;;
47481;SDS011;33219;47.410;9.730;2023-04-08T09:59:51;4.37;;;3.70;;
47481;SDS011;33219;47.410;9.730;2023-04-08T10:02:23;4.45;;;3.40;;
47481;SDS011;33219;47.410;9.730;2023-04-08T10:04:51;5.12;;;3.90;;
47481;SDS011;33219;47.410;9.730;2023-04-08T10:07:21;5.22;;;3.62;;
47481;SDS011;33219;47.410;9.730;2023-04-08T10:09:49;4.45;;;3.35;;
47481;SDS011;33219;47.410;9.730;2023-04-08T10:12:17;6.08;;;3.55;;
47481;SDS011;33219;47.410;9.730;2023-04-08T10:15:20;4.85;;;3.70;;
47481;SDS011;33219;47.410;9.730;2023-04-08T10:17:40;4.53;;;3.72;;
47481;SDS011;33219;47.410;9.730;2023-04-08T10:20:24;4.70;;;3.60;;
47481;SDS011;33219;47.410;9.730;2023-04-08T10:22:47;4.58;;;3.65;;
47481;SDS011;33219;47.410;9.730;2023-04-08T10:27:45;5.00;;;3.70;;
47481;SDS011;33219;47.410;9.730;2023-04-08T10:32:58;4.80;;;3.70;;
47481;SDS011;33219;47.410;9.730;2023-04-08T10:35:34;5.47;;;4.05;;
47481;SDS011;33219;47.410;9.730;2023-04-08T10:38:02;5.03;;;3.70;;
47481;SDS011;33219;47.410;9.730;2023-04-08T10:40:34;4.75;;;3.80;;
47481;SDS011;33219;47.410;9.730;2023-04-08T10:43:03;4.17;;;3.20;;
47481;SDS011;33219;47.410;9.730;2023-04-08T10:45:31;5.12;;;3.52;;
47481;SDS011;33219;47.410;9.730;2023-04-08T10:48:21;4.50;;;3.47;;
47481;SDS011;33219;47.410;9.730;2023-04-08T10:50:38;4.53;;;3.72;;
47481;SDS011;33219;47.410;9.730;2023-04-08T10:53:06;5.58;;;3.77;;
47481;SDS011;33219;47.410;9.730;2023-04-08T10:55:34;4.95;;;3.75;;
47481;SDS011;33219;47.410;9.730;2023-04-08T10:58:05;5.42;;;3.62;;
47481;SDS011;33219;47.410;9.730;2023-04-08T11:00:34;5.05;;;3.77;;
47481;SDS011;33219;47.410;9.730;2023-04-08T11:03:05;5.87;;;4.03;;
47481;SDS011;33219;47.410;9.730;2023-04-08T11:05:34;5.50;;;4.55;;
47481;SDS011;33219;47.410;9.730;2023-04-08T11:08:08;6.40;;;4.30;;
47481;SDS011;33219;47.410;9.730;2023-04-08T11:10:35;5.17;;;4.10;;
47481;SDS011;33219;47.410;9.730;2023-04-08T11:13:07;4.15;;;3.02;;
47481;SDS011;33219;47.410;9.730;2023-04-08T11:15:35;4.87;;;4.10;;
47481;SDS011;33219;47.410;9.730;2023-04-08T11:18:03;7.22;;;4.75;;
47481;SDS011;33219;47.410;9.730;2023-04-08T11:20:31;5.85;;;4.90;;
47481;SDS011;33219;47.410;9.730;2023-04-08T11:23:03;4.30;;;3.58;;
47481;SDS011;33219;47.410;9.730;2023-04-08T11:25:30;4.70;;;4.00;;
47481;SDS011;33219;47.410;9.730;2023-04-08T11:27:58;6.40;;;4.70;;
47481;SDS011;33219;47.410;9.730;2023-04-08T11:30:26;6.22;;;4.90;;
47481;SDS011;33219;47.410;9.730;2023-04-08T11:32:54;7.20;;;5.03;;
47481;SDS011;33219;47.410;9.730;2023-04-08T11:35:22;6.13;;;4.73;;
47481;SDS011;33219;47.410;9.730;2023-04-08T11:37:51;6.05;;;4.37;;
47481;SDS011;33219;47.410;9.730;2023-04-08T11:40:19;6.42;;;4.75;;
47481;SDS011;33219;47.410;9.730;2023-04-08T11:42:48;6.35;;;5.10;;
47481;SDS011;33219;47.410;9.730;2023-04-08T11:45:18;5.92;;;4.72;;
47481;SDS011;33219;47.410;9.730;2023-04-08T11:47:46;5.30;;;4.42;;
47481;SDS011;33219;47.410;9.730;2023-04-08T11:50:24;6.22;;;4.83;;
47481;SDS011;33219;47.410;9.730;2023-04-08T11:52:54;7.72;;;5.03;;
47481;SDS011;33219;47.410;9.730;2023-04-08T11:55:26;6.80;;;5.35;;
47481;SDS011;33219;47.410;9.730;2023-04-08T11:57:53;6.60;;;5.12;;
47481;SDS011;33219;47.410;9.730;2023-04-08T12:00:22;8.18;;;5.65;;
47481;SDS011;33219;47.410;9.730;2023-04-08T12:02:50;5.95;;;4.75;;
47481;SDS011;33219;47.410;9.730;2023-04-08T12:05:18;7.25;;;5.20;;
47481;SDS011;33219;47.410;9.730;2023-04-08T12:07:46;7.50;;;5.83;;
47481;SDS011;33219;47.410;9.730;2023-04-08T12:10:14;6.95;;;4.97;;
47481;SDS011;33219;47.410;9.730;2023-04-08T12:12:41;6.55;;;5.50;;
47481;SDS011;33219;47.410;9.730;2023-04-08T12:15:09;7.60;;;5.58;;
47481;SDS011;33219;47.410;9.730;2023-04-08T12:17:37;5.90;;;4.80;;
47481;SDS011;33219;47.410;9.730;2023-04-08T12:20:05;6.33;;;4.70;;
47481;SDS011;33219;47.410;9.730;2023-04-08T12:22:33;5.95;;;4.60;;
47481;SDS011;33219;47.410;9.730;2023-04-08T12:25:01;5.85;;;4.75;;
47481;SDS011;33219;47.410;9.730;2023-04-08T12:27:29;6.97;;;4.75;;
47481;SDS011;33219;47.410;9.730;2023-04-08T12:30:01;6.35;;;4.72;;
47481;SDS011;33219;47.410;9.730;2023-04-08T12:32:29;7.60;;;4.67;;
47481;SDS011;33219;47.410;9.730;2023-04-08T12:34:56;6.72;;;5.10;;
47481;SDS011;33219;47.410;9.730;2023-04-08T12:37:24;7.05;;;5.33;;
47481;SDS011;33219;47.410;9.730;2023-04-08T12:39:52;8.63;;;6.53;;
47481;SDS011;33219;47.410;9.730;2023-04-08T12:42:20;9.70;;;7.25;;
47481;SDS011;33219;47.410;9.730;2023-04-08T12:44:47;9.70;;;7.33;;
47481;SDS011;33219;47.410;9.730;2023-04-08T12:47:15;8.88;;;7.12;;
47481;SDS011;33219;47.410;9.730;2023-04-08T12:49:42;8.83;;;6.95;;
47481;SDS011;33219;47.410;9.730;2023-04-08T12:52:10;10.23;;;7.12;;
47481;SDS011;33219;47.410;9.730;2023-04-08T12:54:38;8.48;;;6.75;;
47481;SDS011;33219;47.410;9.730;2023-04-08T12:57:05;9.33;;;6.78;;
47481;SDS011;33219;47.410;9.730;2023-04-08T12:59:33;9.05;;;7.20;;
47481;SDS011;33219;47.410;9.730;2023-04-08T13:02:02;9.85;;;7.22;;
47481;SDS011;33219;47.410;9.730;2023-04-08T13:04:30;8.90;;;6.72;;
47481;SDS011;33219;47.410;9.730;2023-04-08T13:06:58;7.78;;;6.17;;
47481;SDS011;33219;47.410;9.730;2023-04-08T13:09:25;9.63;;;5.72;;
47481;SDS011;33219;47.410;9.730;2023-04-08T13:11:54;6.90;;;5.70;;
47481;SDS011;33219;47.410;9.730;2023-04-08T13:14:22;8.68;;;6.37;;
47481;SDS011;33219;47.410;9.730;2023-04-08T13:16:50;7.97;;;5.83;;
47481;SDS011;33219;47.410;9.730;2023-04-08T13:19:18;7.75;;;5.72;;
47481;SDS011;33219;47.410;9.730;2023-04-08T13:21:45;8.28;;;6.25;;
47481;SDS011;33219;47.410;9.730;2023-04-08T13:24:13;8.10;;;5.87;;
47481;SDS011;33219;47.410;9.730;2023-04-08T13:26:40;8.33;;;5.83;;
47481;SDS011;33219;47.410;9.730;2023-04-08T13:29:08;8.58;;;6.35;;
47481;SDS011;33219;47.410;9.730;2023-04-08T13:31:35;8.33;;;6.00;;
47481;SDS011;33219;47.410;9.730;2023-04-08T13:34:03;7.08;;;5.78;;
47481;SDS011;33219;47.410;9.730;2023-04-08T13:36:31;8.13;;;6.42;;
47481;SDS011;33219;47.410;9.730;2023-04-08T13:38:58;7.97;;;5.87;;
47481;SDS011;33219;47.410;9.730;2023-04-08T13:41:26;9.38;;;6.78;;
47481;SDS011;33219;47.410;9.730;2023-04-08T13:43:53;9.83;;;7.25;;
47481;SDS011;33219;47.410;9.730;2023-04-08T13:46:21;9.68;;;7.17;;
47481;SDS011;33219;47.410;9.730;2023-04-08T13:48:49;10.30;;;7.45;;
47481;SDS011;33219;47.410;9.730;2023-04-08T13:51:16;9.73;;;7.78;;
47481;SDS011;33219;47.410;9.730;2023-04-08T13:53:44;10.78;;;8.35;;
47481;SDS011;33219;47.410;9.730;2023-04-08T13:56:11;10.88;;;8.60;;
47481;SDS011;33219;47.410;9.730;2023-04-08T13:58:39;11.50;;;8.98;;
47481;SDS011;33219;47.410;9.730;2023-04-08T14:01:06;12.05;;;9.05;;
47481;SDS011;33219;47.410;9.730;2023-04-08T14:03:34;13.85;;;10.25;;
47481;SDS011;33219;47.410;9.730;2023-04-08T14:06:02;14.28;;;10.78;;
47481;SDS011;33219;47.410;9.730;2023-04-08T14:10:56;14.38;;;10.90;;
47481;SDS011;33219;47.410;9.730;2023-04-08T14:13:24;12.63;;;8.75;;
47481;SDS011;33219;47.410;9.730;2023-04-08T14:15:52;14.00;;;10.25;;
47481;SDS011;33219;47.410;9.730;2023-04-08T14:18:24;14.75;;;10.88;;
47481;SDS011;33219;47.410;9.730;2023-04-08T14:20:52;15.95;;;10.80;;
47481;SDS011;33219;47.410;9.730;2023-04-08T14:23:20;15.83;;;10.82;;
47481;SDS011;33219;47.410;9.730;2023-04-08T14:25:48;12.85;;;9.48;;
47481;SDS011;33219;47.410;9.730;2023-04-08T14:28:16;15.18;;;10.08;;
47481;SDS011;33219;47.410;9.730;2023-04-08T14:30:43;13.90;;;9.83;;
47481;SDS011;33219;47.410;9.730;2023-04-08T14:33:12;12.93;;;9.38;;
47481;SDS011;33219;47.410;9.730;2023-04-08T14:35:39;12.30;;;8.85;;
47481;SDS011;33219;47.410;9.730;2023-04-08T14:38:07;9.73;;;7.00;;
47481;SDS011;33219;47.410;9.730;2023-04-08T14:40:34;8.08;;;6.30;;
47481;SDS011;33219;47.410;9.730;2023-04-08T14:43:02;8.80;;;5.95;;
47481;SDS011;33219;47.410;9.730;2023-04-08T14:45:30;7.28;;;5.42;;
47481;SDS011;33219;47.410;9.730;2023-04-08T14:47:57;8.18;;;5.17;;
47481;SDS011;33219;47.410;9.730;2023-04-08T14:50:25;8.03;;;5.60;;
47481;SDS011;33219;47.410;9.730;2023-04-08T14:52:53;7.03;;;4.90;;
47481;SDS011;33219;47.410;9.730;2023-04-08T14:55:20;5.62;;;4.05;;
47481;SDS011;33219;47.410;9.730;2023-04-08T14:57:48;4.60;;;3.65;;
47481;SDS011;33219;47.410;9.730;2023-04-08T15:00:16;5.95;;;3.60;;
47481;SDS011;33219;47.410;9.730;2023-04-08T15:02:43;6.47;;;4.05;;
47481;SDS011;33219;47.410;9.730;2023-04-08T15:05:11;4.55;;;3.10;;
47481;SDS011;33219;47.410;9.730;2023-04-08T15:07:38;3.72;;;2.85;;
47481;SDS011;33219;47.410;9.730;2023-04-08T15:10:07;4.20;;;3.05;;
47481;SDS011;33219;47.410;9.730;2023-04-08T15:12:35;3.87;;;2.95;;
47481;SDS011;33219;47.410;9.730;2023-04-08T15:15:02;5.22;;;3.27;;